sensor_id;sensor_type;location;lat;lon;timestamp;temperature;humidity
152;DHT22;68;48.792;9.164;2023-06-26T00:01:51;22.10;67.70
152;DHT22;68;48.792;9.164;2023-06-26T00:04:18;22.20;67.50
152;DHT22;68;48.792;9.164;2023-06-26T00:06:45;22.30;67.70
152;DHT22;68;48.792;9.164;2023-06-26T00:09:12;22.30;69.30
152;DHT22;68;48.792;9.164;2023-06-26T00:11:40;22.30;67.30
152;DHT22;68;48.792;9.164;2023-06-26T00:14:06;22.30;67.90
152;DHT22;68;48.792;9.164;2023-06-26T00:16:33;22.30;66.50
152;DHT22;68;48.792;9.164;2023-06-26T00:19:00;22.40;66.70
152;DHT22;68;48.792;9.164;2023-06-26T00:21:27;22.50;65.30
152;DHT22;68;48.792;9.164;2023-06-26T00:23:54;22.60;64.90
152;DHT22;68;48.792;9.164;2023-06-26T00:26:20;22.70;64.80
152;DHT22;68;48.792;9.164;2023-06-26T00:28:48;22.80;64.10
152;DHT22;68;48.792;9.164;2023-06-26T00:31:15;22.90;64.20
152;DHT22;68;48.792;9.164;2023-06-26T00:33:42;23.00;63.60
152;DHT22;68;48.792;9.164;2023-06-26T00:36:09;22.80;65.60
152;DHT22;68;48.792;9.164;2023-06-26T00:38:35;22.70;65.10
152;DHT22;68;48.792;9.164;2023-06-26T00:41:02;22.50;67.10
152;DHT22;68;48.792;9.164;2023-06-26T00:43:30;22.40;66.70
152;DHT22;68;48.792;9.164;2023-06-26T00:45:58;22.40;66.10
152;DHT22;68;48.792;9.164;2023-06-26T00:48:25;22.60;64.80
152;DHT22;68;48.792;9.164;2023-06-26T00:50:52;22.60;65.50
152;DHT22;68;48.792;9.164;2023-06-26T00:53:19;22.40;66.20
152;DHT22;68;48.792;9.164;2023-06-26T00:55:46;22.40;65.70
152;DHT22;68;48.792;9.164;2023-06-26T00:58:13;22.40;66.00
152;DHT22;68;48.792;9.164;2023-06-26T01:00:40;22.30;66.10
152;DHT22;68;48.792;9.164;2023-06-26T01:03:12;22.20;66.80
152;DHT22;68;48.792;9.164;2023-06-26T01:05:39;22.00;67.10
152;DHT22;68;48.792;9.164;2023-06-26T01:08:05;22.10;67.70
152;DHT22;68;48.792;9.164;2023-06-26T01:10:33;22.10;66.90
152;DHT22;68;48.792;9.164;2023-06-26T01:12:59;22.00;67.40
152;DHT22;68;48.792;9.164;2023-06-26T01:15:26;22.00;66.40
152;DHT22;68;48.792;9.164;2023-06-26T01:17:53;22.20;66.00
152;DHT22;68;48.792;9.164;2023-06-26T01:20:30;22.20;65.30
152;DHT22;68;48.792;9.164;2023-06-26T01:23:03;22.20;65.30
152;DHT22;68;48.792;9.164;2023-06-26T01:25:37;22.10;65.60
152;DHT22;68;48.792;9.164;2023-06-26T01:28:06;22.00;65.90
152;DHT22;68;48.792;9.164;2023-06-26T01:30:34;21.90;65.90
152;DHT22;68;48.792;9.164;2023-06-26T01:33:02;21.80;66.10
152;DHT22;68;48.792;9.164;2023-06-26T01:35:30;21.90;66.00
152;DHT22;68;48.792;9.164;2023-06-26T01:38:11;21.90;65.90
152;DHT22;68;48.792;9.164;2023-06-26T01:40:38;21.90;66.00
152;DHT22;68;48.792;9.164;2023-06-26T01:43:13;21.80;66.60
152;DHT22;68;48.792;9.164;2023-06-26T01:45:42;21.80;66.70
152;DHT22;68;48.792;9.164;2023-06-26T01:48:12;21.90;65.90
152;DHT22;68;48.792;9.164;2023-06-26T01:50:44;22.10;66.20
152;DHT22;68;48.792;9.164;2023-06-26T01:53:14;22.20;65.70
152;DHT22;68;48.792;9.164;2023-06-26T01:55:46;22.10;66.00
152;DHT22;68;48.792;9.164;2023-06-26T01:58:15;22.00;66.10
152;DHT22;68;48.792;9.164;2023-06-26T02:00:43;22.00;66.40
152;DHT22;68;48.792;9.164;2023-06-26T02:03:09;21.90;66.10
152;DHT22;68;48.792;9.164;2023-06-26T02:05:36;22.20;65.70
152;DHT22;68;48.792;9.164;2023-06-26T02:08:03;22.30;65.20
152;DHT22;68;48.792;9.164;2023-06-26T02:10:30;22.40;65.00
152;DHT22;68;48.792;9.164;2023-06-26T02:12:57;22.20;65.40
152;DHT22;68;48.792;9.164;2023-06-26T02:15:25;22.20;65.70
152;DHT22;68;48.792;9.164;2023-06-26T02:17:52;21.90;67.00
152;DHT22;68;48.792;9.164;2023-06-26T02:20:18;21.90;67.00
152;DHT22;68;48.792;9.164;2023-06-26T02:22:45;21.60;67.60
152;DHT22;68;48.792;9.164;2023-06-26T02:25:12;21.60;68.00
152;DHT22;68;48.792;9.164;2023-06-26T02:27:39;21.50;68.60
152;DHT22;68;48.792;9.164;2023-06-26T02:30:07;21.20;68.70
152;DHT22;68;48.792;9.164;2023-06-26T02:32:35;21.10;69.80
152;DHT22;68;48.792;9.164;2023-06-26T02:35:02;21.10;69.90
152;DHT22;68;48.792;9.164;2023-06-26T02:37:29;20.90;70.40
152;DHT22;68;48.792;9.164;2023-06-26T02:39:56;20.90;70.50
152;DHT22;68;48.792;9.164;2023-06-26T02:42:23;20.90;70.80
152;DHT22;68;48.792;9.164;2023-06-26T02:44:50;20.90;70.80
152;DHT22;68;48.792;9.164;2023-06-26T02:47:17;20.90;71.20
152;DHT22;68;48.792;9.164;2023-06-26T02:49:45;20.70;71.90
152;DHT22;68;48.792;9.164;2023-06-26T02:52:12;20.60;71.80
152;DHT22;68;48.792;9.164;2023-06-26T02:54:39;20.50;72.20
152;DHT22;68;48.792;9.164;2023-06-26T02:57:05;20.50;72.10
152;DHT22;68;48.792;9.164;2023-06-26T02:59:32;20.50;72.10
152;DHT22;68;48.792;9.164;2023-06-26T03:01:59;20.40;72.10
152;DHT22;68;48.792;9.164;2023-06-26T03:04:26;20.30;72.30
152;DHT22;68;48.792;9.164;2023-06-26T03:06:54;20.30;73.60
152;DHT22;68;48.792;9.164;2023-06-26T03:09:21;20.50;73.30
152;DHT22;68;48.792;9.164;2023-06-26T03:11:47;20.40;71.90
152;DHT22;68;48.792;9.164;2023-06-26T03:14:14;20.30;72.20
152;DHT22;68;48.792;9.164;2023-06-26T03:16:41;20.40;72.00
152;DHT22;68;48.792;9.164;2023-06-26T03:19:08;20.40;72.10
152;DHT22;68;48.792;9.164;2023-06-26T03:21:35;20.50;72.60
152;DHT22;68;48.792;9.164;2023-06-26T03:24:03;20.50;73.50
152;DHT22;68;48.792;9.164;2023-06-26T03:26:30;20.40;73.20
152;DHT22;68;48.792;9.164;2023-06-26T03:28:58;20.50;72.90
152;DHT22;68;48.792;9.164;2023-06-26T03:31:24;20.60;72.10
152;DHT22;68;48.792;9.164;2023-06-26T03:33:52;20.50;72.40
152;DHT22;68;48.792;9.164;2023-06-26T03:36:19;20.50;72.40
152;DHT22;68;48.792;9.164;2023-06-26T03:38:46;20.30;73.30
152;DHT22;68;48.792;9.164;2023-06-26T03:41:14;20.20;73.10
152;DHT22;68;48.792;9.164;2023-06-26T03:43:40;20.10;73.50
152;DHT22;68;48.792;9.164;2023-06-26T03:46:07;20.10;74.10
152;DHT22;68;48.792;9.164;2023-06-26T03:48:34;20.20;74.10
152;DHT22;68;48.792;9.164;2023-06-26T03:51:00;20.00;74.00
152;DHT22;68;48.792;9.164;2023-06-26T03:53:28;20.00;74.40
152;DHT22;68;48.792;9.164;2023-06-26T03:55:54;20.00;74.60
152;DHT22;68;48.792;9.164;2023-06-26T03:58:22;20.10;74.40
152;DHT22;68;48.792;9.164;2023-06-26T04:00:50;20.10;74.60
152;DHT22;68;48.792;9.164;2023-06-26T04:03:17;20.10;74.60
152;DHT22;68;48.792;9.164;2023-06-26T04:05:44;20.00;75.30
152;DHT22;68;48.792;9.164;2023-06-26T04:08:11;20.00;74.90
152;DHT22;68;48.792;9.164;2023-06-26T04:10:37;20.00;75.20
152;DHT22;68;48.792;9.164;2023-06-26T04:13:04;19.90;75.70
152;DHT22;68;48.792;9.164;2023-06-26T04:15:32;19.90;75.20
152;DHT22;68;48.792;9.164;2023-06-26T04:17:59;19.90;75.30
152;DHT22;68;48.792;9.164;2023-06-26T04:20:25;19.90;75.30
152;DHT22;68;48.792;9.164;2023-06-26T04:22:55;19.90;75.30
152;DHT22;68;48.792;9.164;2023-06-26T04:25:22;19.90;75.90
152;DHT22;68;48.792;9.164;2023-06-26T04:27:49;19.90;75.50
152;DHT22;68;48.792;9.164;2023-06-26T04:30:17;19.90;75.30
152;DHT22;68;48.792;9.164;2023-06-26T04:32:45;19.90;75.60
152;DHT22;68;48.792;9.164;2023-06-26T04:35:11;19.90;75.90
152;DHT22;68;48.792;9.164;2023-06-26T04:37:38;19.90;75.80
152;DHT22;68;48.792;9.164;2023-06-26T04:40:06;19.90;76.40
152;DHT22;68;48.792;9.164;2023-06-26T04:42:35;20.00;76.30
152;DHT22;68;48.792;9.164;2023-06-26T04:45:01;20.00;76.30
152;DHT22;68;48.792;9.164;2023-06-26T04:47:28;20.20;76.50
152;DHT22;68;48.792;9.164;2023-06-26T04:49:59;20.20;76.10
152;DHT22;68;48.792;9.164;2023-06-26T04:52:25;20.30;77.40
152;DHT22;68;48.792;9.164;2023-06-26T04:54:52;20.50;77.10
152;DHT22;68;48.792;9.164;2023-06-26T04:57:19;20.60;76.00
152;DHT22;68;48.792;9.164;2023-06-26T04:59:45;20.70;75.60
152;DHT22;68;48.792;9.164;2023-06-26T05:02:12;20.60;74.40
152;DHT22;68;48.792;9.164;2023-06-26T05:04:40;20.90;75.60
152;DHT22;68;48.792;9.164;2023-06-26T05:07:09;21.10;75.70
152;DHT22;68;48.792;9.164;2023-06-26T05:09:37;21.10;75.60
152;DHT22;68;48.792;9.164;2023-06-26T05:12:05;21.20;72.50
152;DHT22;68;48.792;9.164;2023-06-26T05:14:31;21.40;72.90
152;DHT22;68;48.792;9.164;2023-06-26T05:16:58;21.50;71.50
152;DHT22;68;48.792;9.164;2023-06-26T05:19:25;21.60;71.30
152;DHT22;68;48.792;9.164;2023-06-26T05:21:52;22.00;71.00
152;DHT22;68;48.792;9.164;2023-06-26T05:24:20;22.10;70.90
152;DHT22;68;48.792;9.164;2023-06-26T05:26:48;22.00;70.00
152;DHT22;68;48.792;9.164;2023-06-26T05:29:16;22.10;70.00
152;DHT22;68;48.792;9.164;2023-06-26T05:31:44;22.10;69.50
152;DHT22;68;48.792;9.164;2023-06-26T05:34:13;22.30;69.30
152;DHT22;68;48.792;9.164;2023-06-26T05:36:42;22.50;68.90
152;DHT22;68;48.792;9.164;2023-06-26T05:39:09;22.60;68.50
152;DHT22;68;48.792;9.164;2023-06-26T05:41:38;22.60;70.60
152;DHT22;68;48.792;9.164;2023-06-26T05:44:05;22.60;70.00
152;DHT22;68;48.792;9.164;2023-06-26T05:46:32;22.70;70.10
152;DHT22;68;48.792;9.164;2023-06-26T05:48:58;22.70;70.00
152;DHT22;68;48.792;9.164;2023-06-26T05:51:27;22.70;69.00
152;DHT22;68;48.792;9.164;2023-06-26T05:53:54;22.80;69.70
152;DHT22;68;48.792;9.164;2023-06-26T05:56:21;22.90;68.90
152;DHT22;68;48.792;9.164;2023-06-26T05:58:49;23.10;69.50
152;DHT22;68;48.792;9.164;2023-06-26T06:01:17;23.20;68.60
152;DHT22;68;48.792;9.164;2023-06-26T06:03:44;23.20;68.90
152;DHT22;68;48.792;9.164;2023-06-26T06:06:11;23.30;69.70
152;DHT22;68;48.792;9.164;2023-06-26T06:08:37;23.20;70.10
152;DHT22;68;48.792;9.164;2023-06-26T06:11:04;23.30;69.10
152;DHT22;68;48.792;9.164;2023-06-26T06:13:31;23.40;69.20
152;DHT22;68;48.792;9.164;2023-06-26T06:16:00;23.40;70.10
152;DHT22;68;48.792;9.164;2023-06-26T06:18:27;23.40;69.40
152;DHT22;68;48.792;9.164;2023-06-26T06:20:53;23.50;70.30
152;DHT22;68;48.792;9.164;2023-06-26T06:23:20;23.50;69.30
152;DHT22;68;48.792;9.164;2023-06-26T06:25:47;23.60;69.50
152;DHT22;68;48.792;9.164;2023-06-26T06:28:14;23.80;69.50
152;DHT22;68;48.792;9.164;2023-06-26T06:30:42;23.80;69.10
152;DHT22;68;48.792;9.164;2023-06-26T06:33:10;24.00;69.80
152;DHT22;68;48.792;9.164;2023-06-26T06:35:36;24.00;68.60
152;DHT22;68;48.792;9.164;2023-06-26T06:38:03;24.00;68.80
152;DHT22;68;48.792;9.164;2023-06-26T06:40:30;24.10;69.90
152;DHT22;68;48.792;9.164;2023-06-26T06:42:57;24.00;68.10
152;DHT22;68;48.792;9.164;2023-06-26T06:45:24;24.10;68.50
152;DHT22;68;48.792;9.164;2023-06-26T06:47:50;24.10;69.50
152;DHT22;68;48.792;9.164;2023-06-26T06:50:19;24.40;69.00
152;DHT22;68;48.792;9.164;2023-06-26T06:52:45;24.60;68.40
152;DHT22;68;48.792;9.164;2023-06-26T06:55:12;24.40;69.20
152;DHT22;68;48.792;9.164;2023-06-26T06:57:40;24.40;68.30
152;DHT22;68;48.792;9.164;2023-06-26T07:00:08;24.50;69.20
152;DHT22;68;48.792;9.164;2023-06-26T07:02:35;24.40;69.10
152;DHT22;68;48.792;9.164;2023-06-26T07:05:02;24.60;70.00
152;DHT22;68;48.792;9.164;2023-06-26T07:07:32;24.70;68.90
152;DHT22;68;48.792;9.164;2023-06-26T07:10:00;24.70;68.70
152;DHT22;68;48.792;9.164;2023-06-26T07:12:27;24.40;68.20
152;DHT22;68;48.792;9.164;2023-06-26T07:14:55;24.40;68.60
152;DHT22;68;48.792;9.164;2023-06-26T07:17:22;24.50;68.10
152;DHT22;68;48.792;9.164;2023-06-26T07:19:49;24.80;68.40
152;DHT22;68;48.792;9.164;2023-06-26T07:22:16;24.80;67.30
152;DHT22;68;48.792;9.164;2023-06-26T07:24:47;24.90;66.80
152;DHT22;68;48.792;9.164;2023-06-26T07:27:14;24.90;66.80
152;DHT22;68;48.792;9.164;2023-06-26T07:29:41;25.20;67.50
152;DHT22;68;48.792;9.164;2023-06-26T07:32:08;25.30;67.30
152;DHT22;68;48.792;9.164;2023-06-26T07:34:34;25.50;66.70
152;DHT22;68;48.792;9.164;2023-06-26T07:37:01;25.70;66.20
152;DHT22;68;48.792;9.164;2023-06-26T07:39:28;25.80;64.70
152;DHT22;68;48.792;9.164;2023-06-26T07:41:56;25.70;64.10
152;DHT22;68;48.792;9.164;2023-06-26T07:44:23;25.80;65.00
152;DHT22;68;48.792;9.164;2023-06-26T07:46:50;25.90;62.20
152;DHT22;68;48.792;9.164;2023-06-26T07:49:17;26.10;62.70
152;DHT22;68;48.792;9.164;2023-06-26T07:51:44;26.30;62.70
152;DHT22;68;48.792;9.164;2023-06-26T07:54:11;26.40;61.50
152;DHT22;68;48.792;9.164;2023-06-26T07:56:53;26.70;60.80
152;DHT22;68;48.792;9.164;2023-06-26T07:59:21;26.70;60.20
152;DHT22;68;48.792;9.164;2023-06-26T08:01:48;26.80;60.80
152;DHT22;68;48.792;9.164;2023-06-26T08:04:15;26.80;60.20
152;DHT22;68;48.792;9.164;2023-06-26T08:06:42;26.90;60.90
152;DHT22;68;48.792;9.164;2023-06-26T08:09:09;27.10;60.50
152;DHT22;68;48.792;9.164;2023-06-26T08:11:38;27.20;59.10
152;DHT22;68;48.792;9.164;2023-06-26T08:14:04;27.30;59.90
152;DHT22;68;48.792;9.164;2023-06-26T08:16:33;27.20;59.40
152;DHT22;68;48.792;9.164;2023-06-26T08:19:00;27.30;60.40
152;DHT22;68;48.792;9.164;2023-06-26T08:21:27;27.50;59.70
152;DHT22;68;48.792;9.164;2023-06-26T08:23:54;27.60;59.50
152;DHT22;68;48.792;9.164;2023-06-26T08:26:21;27.70;60.60
152;DHT22;68;48.792;9.164;2023-06-26T08:28:48;27.60;58.40
152;DHT22;68;48.792;9.164;2023-06-26T08:31:15;27.70;59.50
152;DHT22;68;48.792;9.164;2023-06-26T08:33:43;28.00;58.50
152;DHT22;68;48.792;9.164;2023-06-26T08:36:10;28.00;58.60
152;DHT22;68;48.792;9.164;2023-06-26T08:38:37;28.20;57.70
152;DHT22;68;48.792;9.164;2023-06-26T08:41:05;28.30;57.20
152;DHT22;68;48.792;9.164;2023-06-26T08:43:32;28.40;57.50
152;DHT22;68;48.792;9.164;2023-06-26T08:45:59;28.30;56.50
152;DHT22;68;48.792;9.164;2023-06-26T08:48:26;28.30;56.60
152;DHT22;68;48.792;9.164;2023-06-26T08:50:57;28.30;57.60
152;DHT22;68;48.792;9.164;2023-06-26T08:53:32;28.20;57.20
152;DHT22;68;48.792;9.164;2023-06-26T08:56:00;28.40;55.70
152;DHT22;68;48.792;9.164;2023-06-26T08:58:27;28.60;57.40
152;DHT22;68;48.792;9.164;2023-06-26T09:00:54;28.90;55.50
152;DHT22;68;48.792;9.164;2023-06-26T09:03:23;28.90;54.70
152;DHT22;68;48.792;9.164;2023-06-26T09:05:51;28.80;56.30
152;DHT22;68;48.792;9.164;2023-06-26T09:08:19;29.00;55.70
152;DHT22;68;48.792;9.164;2023-06-26T09:10:46;29.20;55.10
152;DHT22;68;48.792;9.164;2023-06-26T09:13:13;29.40;54.70
152;DHT22;68;48.792;9.164;2023-06-26T09:15:43;29.60;55.10
152;DHT22;68;48.792;9.164;2023-06-26T09:18:10;29.70;55.60
152;DHT22;68;48.792;9.164;2023-06-26T09:20:39;29.70;55.30
152;DHT22;68;48.792;9.164;2023-06-26T09:23:06;29.60;54.10
152;DHT22;68;48.792;9.164;2023-06-26T09:25:38;29.80;54.90
152;DHT22;68;48.792;9.164;2023-06-26T09:28:05;29.90;54.80
152;DHT22;68;48.792;9.164;2023-06-26T09:30:32;30.00;54.30
152;DHT22;68;48.792;9.164;2023-06-26T09:33:13;30.00;52.80
152;DHT22;68;48.792;9.164;2023-06-26T09:35:40;30.00;53.80
152;DHT22;68;48.792;9.164;2023-06-26T09:38:07;29.80;54.10
152;DHT22;68;48.792;9.164;2023-06-26T09:40:35;29.90;54.40
152;DHT22;68;48.792;9.164;2023-06-26T09:43:03;30.00;53.00
152;DHT22;68;48.792;9.164;2023-06-26T09:45:31;30.00;53.70
152;DHT22;68;48.792;9.164;2023-06-26T09:48:00;30.10;54.20
152;DHT22;68;48.792;9.164;2023-06-26T09:50:27;30.30;53.10
152;DHT22;68;48.792;9.164;2023-06-26T09:52:55;30.50;53.20
152;DHT22;68;48.792;9.164;2023-06-26T09:55:21;30.70;52.50
152;DHT22;68;48.792;9.164;2023-06-26T09:57:50;30.60;52.20
152;DHT22;68;48.792;9.164;2023-06-26T10:00:18;30.40;52.30
152;DHT22;68;48.792;9.164;2023-06-26T10:02:45;30.40;52.30
152;DHT22;68;48.792;9.164;2023-06-26T10:05:12;30.50;53.00
152;DHT22;68;48.792;9.164;2023-06-26T10:07:39;30.40;53.10
152;DHT22;68;48.792;9.164;2023-06-26T10:10:07;30.30;53.30
152;DHT22;68;48.792;9.164;2023-06-26T10:12:35;30.20;54.60
152;DHT22;68;48.792;9.164;2023-06-26T10:15:04;30.20;53.90
152;DHT22;68;48.792;9.164;2023-06-26T10:17:34;30.20;54.10
152;DHT22;68;48.792;9.164;2023-06-26T10:20:03;30.30;54.90
152;DHT22;68;48.792;9.164;2023-06-26T10:22:36;30.30;55.30
152;DHT22;68;48.792;9.164;2023-06-26T10:25:06;30.50;54.90
152;DHT22;68;48.792;9.164;2023-06-26T10:27:37;30.50;56.20
152;DHT22;68;48.792;9.164;2023-06-26T10:30:11;30.60;55.00
152;DHT22;68;48.792;9.164;2023-06-26T10:32:40;30.60;54.70
152;DHT22;68;48.792;9.164;2023-06-26T10:35:08;30.40;54.70
152;DHT22;68;48.792;9.164;2023-06-26T10:37:44;30.00;54.90
152;DHT22;68;48.792;9.164;2023-06-26T10:40:12;29.90;55.70
152;DHT22;68;48.792;9.164;2023-06-26T10:42:39;30.00;56.00
152;DHT22;68;48.792;9.164;2023-06-26T10:45:13;30.10;56.40
152;DHT22;68;48.792;9.164;2023-06-26T10:47:41;30.00;56.50
152;DHT22;68;48.792;9.164;2023-06-26T10:50:18;30.20;54.90
152;DHT22;68;48.792;9.164;2023-06-26T10:52:46;30.40;54.20
152;DHT22;68;48.792;9.164;2023-06-26T10:55:32;30.50;54.30
152;DHT22;68;48.792;9.164;2023-06-26T10:57:59;30.30;55.10
152;DHT22;68;48.792;9.164;2023-06-26T11:00:28;30.50;54.90
152;DHT22;68;48.792;9.164;2023-06-26T11:02:55;30.50;53.80
152;DHT22;68;48.792;9.164;2023-06-26T11:05:26;30.80;53.30
152;DHT22;68;48.792;9.164;2023-06-26T11:08:03;30.80;53.60
152;DHT22;68;48.792;9.164;2023-06-26T11:10:48;30.60;55.80
152;DHT22;68;48.792;9.164;2023-06-26T11:13:17;30.80;54.00
152;DHT22;68;48.792;9.164;2023-06-26T11:15:45;31.00;53.90
152;DHT22;68;48.792;9.164;2023-06-26T11:18:12;30.80;54.70
152;DHT22;68;48.792;9.164;2023-06-26T11:20:39;31.00;54.30
152;DHT22;68;48.792;9.164;2023-06-26T11:23:07;30.80;55.00
152;DHT22;68;48.792;9.164;2023-06-26T11:25:35;30.90;54.70
152;DHT22;68;48.792;9.164;2023-06-26T11:28:02;30.90;54.20
152;DHT22;68;48.792;9.164;2023-06-26T11:30:30;31.00;53.40
152;DHT22;68;48.792;9.164;2023-06-26T11:33:05;31.00;54.10
152;DHT22;68;48.792;9.164;2023-06-26T11:35:32;31.20;54.70
152;DHT22;68;48.792;9.164;2023-06-26T11:38:01;31.40;54.10
152;DHT22;68;48.792;9.164;2023-06-26T11:40:31;31.10;54.40
152;DHT22;68;48.792;9.164;2023-06-26T11:42:58;31.30;54.00
152;DHT22;68;48.792;9.164;2023-06-26T11:45:25;31.50;54.20
152;DHT22;68;48.792;9.164;2023-06-26T11:47:54;31.70;53.90
152;DHT22;68;48.792;9.164;2023-06-26T11:50:24;31.70;52.90
152;DHT22;68;48.792;9.164;2023-06-26T11:52:54;31.80;53.70
152;DHT22;68;48.792;9.164;2023-06-26T11:55:21;31.70;54.00
152;DHT22;68;48.792;9.164;2023-06-26T11:57:49;31.90;54.00
152;DHT22;68;48.792;9.164;2023-06-26T12:00:16;32.00;54.60
152;DHT22;68;48.792;9.164;2023-06-26T12:02:44;31.60;55.70
152;DHT22;68;48.792;9.164;2023-06-26T12:05:13;31.70;56.10
152;DHT22;68;48.792;9.164;2023-06-26T12:07:44;31.40;55.80
152;DHT22;68;48.792;9.164;2023-06-26T12:10:12;31.40;56.90
152;DHT22;68;48.792;9.164;2023-06-26T12:12:40;31.70;56.40
152;DHT22;68;48.792;9.164;2023-06-26T12:15:08;31.80;56.50
152;DHT22;68;48.792;9.164;2023-06-26T12:17:38;31.80;56.70
152;DHT22;68;48.792;9.164;2023-06-26T12:20:16;31.70;56.00
152;DHT22;68;48.792;9.164;2023-06-26T12:22:45;31.90;56.80
152;DHT22;68;48.792;9.164;2023-06-26T12:25:12;31.70;56.10
152;DHT22;68;48.792;9.164;2023-06-26T12:27:39;31.40;56.90
152;DHT22;68;48.792;9.164;2023-06-26T12:30:07;31.50;56.50
152;DHT22;68;48.792;9.164;2023-06-26T12:32:34;31.50;56.70
152;DHT22;68;48.792;9.164;2023-06-26T12:35:01;31.40;57.00
152;DHT22;68;48.792;9.164;2023-06-26T12:37:29;31.20;57.60
152;DHT22;68;48.792;9.164;2023-06-26T12:39:57;31.40;57.30
152;DHT22;68;48.792;9.164;2023-06-26T12:42:25;31.40;56.60
152;DHT22;68;48.792;9.164;2023-06-26T12:44:52;31.40;57.40
152;DHT22;68;48.792;9.164;2023-06-26T12:47:24;31.40;56.10
152;DHT22;68;48.792;9.164;2023-06-26T12:49:52;31.30;57.00
152;DHT22;68;48.792;9.164;2023-06-26T12:52:20;31.40;56.50
152;DHT22;68;48.792;9.164;2023-06-26T12:54:51;31.20;57.30
152;DHT22;68;48.792;9.164;2023-06-26T12:57:19;30.90;57.60
152;DHT22;68;48.792;9.164;2023-06-26T12:59:46;31.00;57.90
152;DHT22;68;48.792;9.164;2023-06-26T13:02:13;31.20;57.10
152;DHT22;68;48.792;9.164;2023-06-26T13:04:40;31.00;56.10
152;DHT22;68;48.792;9.164;2023-06-26T13:07:10;31.10;56.90
152;DHT22;68;48.792;9.164;2023-06-26T13:09:37;31.10;56.60
152;DHT22;68;48.792;9.164;2023-06-26T13:12:06;31.10;56.90
152;DHT22;68;48.792;9.164;2023-06-26T13:14:34;31.20;56.60
152;DHT22;68;48.792;9.164;2023-06-26T13:17:02;31.30;56.70
152;DHT22;68;48.792;9.164;2023-06-26T13:19:29;31.30;56.50
152;DHT22;68;48.792;9.164;2023-06-26T13:21:55;31.30;56.70
152;DHT22;68;48.792;9.164;2023-06-26T13:24:22;30.90;56.10
152;DHT22;68;48.792;9.164;2023-06-26T13:26:49;30.70;56.80
152;DHT22;68;48.792;9.164;2023-06-26T13:29:16;30.40;57.20
152;DHT22;68;48.792;9.164;2023-06-26T13:31:44;30.40;57.70
152;DHT22;68;48.792;9.164;2023-06-26T13:34:20;30.70;56.80
152;DHT22;68;48.792;9.164;2023-06-26T13:36:47;30.70;56.20
152;DHT22;68;48.792;9.164;2023-06-26T13:39:14;30.60;55.30
152;DHT22;68;48.792;9.164;2023-06-26T13:41:40;30.60;56.00
152;DHT22;68;48.792;9.164;2023-06-26T13:44:07;30.60;56.10
152;DHT22;68;48.792;9.164;2023-06-26T13:46:34;30.70;55.00
152;DHT22;68;48.792;9.164;2023-06-26T13:49:02;30.80;54.60
152;DHT22;68;48.792;9.164;2023-06-26T13:51:29;30.80;54.10
152;DHT22;68;48.792;9.164;2023-06-26T13:53:55;30.90;53.60
152;DHT22;68;48.792;9.164;2023-06-26T13:56:25;30.70;54.00
152;DHT22;68;48.792;9.164;2023-06-26T13:58:54;30.40;53.00
152;DHT22;68;48.792;9.164;2023-06-26T14:01:21;30.30;53.80
152;DHT22;68;48.792;9.164;2023-06-26T14:03:49;30.40;52.10
152;DHT22;68;48.792;9.164;2023-06-26T14:06:17;30.30;52.80
152;DHT22;68;48.792;9.164;2023-06-26T14:08:46;30.20;52.40
152;DHT22;68;48.792;9.164;2023-06-26T14:11:12;30.10;52.70
152;DHT22;68;48.792;9.164;2023-06-26T14:13:41;30.10;53.00
152;DHT22;68;48.792;9.164;2023-06-26T14:16:07;30.10;53.80
152;DHT22;68;48.792;9.164;2023-06-26T14:18:34;30.20;51.80
152;DHT22;68;48.792;9.164;2023-06-26T14:21:01;30.40;52.10
152;DHT22;68;48.792;9.164;2023-06-26T14:23:30;30.50;52.50
152;DHT22;68;48.792;9.164;2023-06-26T14:25:59;30.40;52.10
152;DHT22;68;48.792;9.164;2023-06-26T14:28:25;30.50;52.10
152;DHT22;68;48.792;9.164;2023-06-26T14:30:52;30.30;52.00
152;DHT22;68;48.792;9.164;2023-06-26T14:33:19;30.40;52.00
152;DHT22;68;48.792;9.164;2023-06-26T14:35:46;30.30;52.50
152;DHT22;68;48.792;9.164;2023-06-26T14:38:13;30.00;52.20
152;DHT22;68;48.792;9.164;2023-06-26T14:40:41;29.70;52.00
152;DHT22;68;48.792;9.164;2023-06-26T14:43:07;29.70;52.50
152;DHT22;68;48.792;9.164;2023-06-26T14:45:34;29.60;52.40
152;DHT22;68;48.792;9.164;2023-06-26T14:48:01;29.50;52.80
152;DHT22;68;48.792;9.164;2023-06-26T14:50:28;29.50;53.20
152;DHT22;68;48.792;9.164;2023-06-26T14:52:54;29.50;53.00
152;DHT22;68;48.792;9.164;2023-06-26T14:55:21;29.60;52.80
152;DHT22;68;48.792;9.164;2023-06-26T14:57:49;29.70;54.10
152;DHT22;68;48.792;9.164;2023-06-26T15:00:17;29.60;53.70
152;DHT22;68;48.792;9.164;2023-06-26T15:02:43;29.60;54.20
152;DHT22;68;48.792;9.164;2023-06-26T15:05:10;29.50;54.30
152;DHT22;68;48.792;9.164;2023-06-26T15:07:37;29.50;54.60
152;DHT22;68;48.792;9.164;2023-06-26T15:10:07;29.70;54.20
152;DHT22;68;48.792;9.164;2023-06-26T15:12:35;29.70;53.90
152;DHT22;68;48.792;9.164;2023-06-26T15:15:07;29.60;54.70
152;DHT22;68;48.792;9.164;2023-06-26T15:17:37;29.60;55.30
152;DHT22;68;48.792;9.164;2023-06-26T15:20:04;29.30;54.60
152;DHT22;68;48.792;9.164;2023-06-26T15:22:31;29.20;54.50
152;DHT22;68;48.792;9.164;2023-06-26T15:24:58;29.20;54.90
152;DHT22;68;48.792;9.164;2023-06-26T15:27:25;29.20;54.60
152;DHT22;68;48.792;9.164;2023-06-26T15:29:51;29.20;55.60
152;DHT22;68;48.792;9.164;2023-06-26T15:32:20;29.10;55.20
152;DHT22;68;48.792;9.164;2023-06-26T15:34:46;29.00;54.50
152;DHT22;68;48.792;9.164;2023-06-26T15:37:13;28.80;55.50
152;DHT22;68;48.792;9.164;2023-06-26T15:39:43;28.80;56.30
152;DHT22;68;48.792;9.164;2023-06-26T15:42:09;28.60;55.20
152;DHT22;68;48.792;9.164;2023-06-26T15:44:36;28.50;56.00
152;DHT22;68;48.792;9.164;2023-06-26T15:47:03;28.60;55.10
152;DHT22;68;48.792;9.164;2023-06-26T15:49:32;28.70;54.70
152;DHT22;68;48.792;9.164;2023-06-26T15:51:58;28.80;54.40
152;DHT22;68;48.792;9.164;2023-06-26T15:54:25;28.70;54.20
152;DHT22;68;48.792;9.164;2023-06-26T15:56:52;28.50;55.60
152;DHT22;68;48.792;9.164;2023-06-26T15:59:19;28.40;55.30
152;DHT22;68;48.792;9.164;2023-06-26T16:01:45;28.40;55.70
152;DHT22;68;48.792;9.164;2023-06-26T16:04:15;28.40;55.20
152;DHT22;68;48.792;9.164;2023-06-26T16:06:43;28.20;56.30
152;DHT22;68;48.792;9.164;2023-06-26T16:09:10;28.10;56.30
152;DHT22;68;48.792;9.164;2023-06-26T16:11:37;28.10;56.60
152;DHT22;68;48.792;9.164;2023-06-26T16:14:03;28.00;56.60
152;DHT22;68;48.792;9.164;2023-06-26T16:16:30;27.80;56.90
152;DHT22;68;48.792;9.164;2023-06-26T16:18:57;27.80;56.20
152;DHT22;68;48.792;9.164;2023-06-26T16:21:24;27.60;56.50
152;DHT22;68;48.792;9.164;2023-06-26T16:23:52;27.70;56.70
152;DHT22;68;48.792;9.164;2023-06-26T16:26:18;27.60;57.10
152;DHT22;68;48.792;9.164;2023-06-26T16:28:45;27.70;56.10
152;DHT22;68;48.792;9.164;2023-06-26T16:31:15;27.60;55.90
152;DHT22;68;48.792;9.164;2023-06-26T16:33:42;27.30;56.90
152;DHT22;68;48.792;9.164;2023-06-26T16:36:09;27.20;56.90
152;DHT22;68;48.792;9.164;2023-06-26T16:38:36;27.00;56.40
152;DHT22;68;48.792;9.164;2023-06-26T16:41:08;27.00;55.90
152;DHT22;68;48.792;9.164;2023-06-26T16:43:34;26.90;56.50
152;DHT22;68;48.792;9.164;2023-06-26T16:46:01;26.90;57.30
152;DHT22;68;48.792;9.164;2023-06-26T16:48:28;27.00;55.50
152;DHT22;68;48.792;9.164;2023-06-26T16:50:57;27.00;54.10
152;DHT22;68;48.792;9.164;2023-06-26T16:53:23;27.10;54.10
152;DHT22;68;48.792;9.164;2023-06-26T16:55:51;27.10;53.50